sensor_id;sensor_type;location;lat;lon;timestamp;temperature;humidity
3360;DHT22;1693;49.602;11.046;2022-08-07T00:02:08;14.80;92.10
3360;DHT22;1693;49.602;11.046;2022-08-07T00:04:35;14.80;92.00
3360;DHT22;1693;49.602;11.046;2022-08-07T00:07:02;14.70;92.50
3360;DHT22;1693;49.602;11.046;2022-08-07T00:09:29;14.70;92.90
3360;DHT22;1693;49.602;11.046;2022-08-07T00:11:56;14.60;93.70
3360;DHT22;1693;49.602;11.046;2022-08-07T00:14:25;14.60;93.10
3360;DHT22;1693;49.602;11.046;2022-08-07T00:16:55;14.60;93.50
3360;DHT22;1693;49.602;11.046;2022-08-07T00:19:22;14.60;93.80
3360;DHT22;1693;49.602;11.046;2022-08-07T00:21:49;14.60;93.90
3360;DHT22;1693;49.602;11.046;2022-08-07T00:24:16;14.50;94.10
3360;DHT22;1693;49.602;11.046;2022-08-07T00:26:43;14.50;94.00
3360;DHT22;1693;49.602;11.046;2022-08-07T00:29:10;14.50;94.70
3360;DHT22;1693;49.602;11.046;2022-08-07T00:31:38;14.50;94.40
3360;DHT22;1693;49.602;11.046;2022-08-07T00:34:06;14.40;94.80
3360;DHT22;1693;49.602;11.046;2022-08-07T00:36:33;14.40;95.60
3360;DHT22;1693;49.602;11.046;2022-08-07T00:39:00;14.40;95.00
3360;DHT22;1693;49.602;11.046;2022-08-07T00:41:32;14.40;95.80
3360;DHT22;1693;49.602;11.046;2022-08-07T00:43:59;14.40;95.40
3360;DHT22;1693;49.602;11.046;2022-08-07T00:46:26;14.50;95.70
3360;DHT22;1693;49.602;11.046;2022-08-07T00:48:54;14.50;95.90
3360;DHT22;1693;49.602;11.046;2022-08-07T00:51:26;14.50;95.60
3360;DHT22;1693;49.602;11.046;2022-08-07T00:53:53;14.40;95.70
3360;DHT22;1693;49.602;11.046;2022-08-07T00:56:21;14.40;96.10
3360;DHT22;1693;49.602;11.046;2022-08-07T00:58:48;14.30;96.50
3360;DHT22;1693;49.602;11.046;2022-08-07T01:03:45;14.10;97.20
3360;DHT22;1693;49.602;11.046;2022-08-07T01:06:14;14.10;98.40
3360;DHT22;1693;49.602;11.046;2022-08-07T01:08:42;14.00;98.70
3360;DHT22;1693;49.602;11.046;2022-08-07T01:11:10;14.00;99.20
3360;DHT22;1693;49.602;11.046;2022-08-07T01:13:37;13.90;99.60
3360;DHT22;1693;49.602;11.046;2022-08-07T01:16:05;13.90;99.30
3360;DHT22;1693;49.602;11.046;2022-08-07T01:18:33;13.80;99.90
3360;DHT22;1693;49.602;11.046;2022-08-07T01:21:09;13.80;99.90
3360;DHT22;1693;49.602;11.046;2022-08-07T01:23:36;13.70;99.90
3360;DHT22;1693;49.602;11.046;2022-08-07T01:26:05;13.70;99.90
3360;DHT22;1693;49.602;11.046;2022-08-07T01:28:32;13.60;99.90
3360;DHT22;1693;49.602;11.046;2022-08-07T01:31:00;13.50;99.90
3360;DHT22;1693;49.602;11.046;2022-08-07T01:33:28;13.50;99.90
3360;DHT22;1693;49.602;11.046;2022-08-07T01:35:56;13.40;99.90
3360;DHT22;1693;49.602;11.046;2022-08-07T01:38:26;13.40;99.90
3360;DHT22;1693;49.602;11.046;2022-08-07T01:40:56;13.40;99.90
3360;DHT22;1693;49.602;11.046;2022-08-07T01:43:23;13.30;99.90
3360;DHT22;1693;49.602;11.046;2022-08-07T01:45:52;13.30;99.90
3360;DHT22;1693;49.602;11.046;2022-08-07T01:48:20;13.20;99.90
3360;DHT22;1693;49.602;11.046;2022-08-07T01:50:51;13.20;99.90
3360;DHT22;1693;49.602;11.046;2022-08-07T01:53:20;13.20;99.90
3360;DHT22;1693;49.602;11.046;2022-08-07T01:55:51;13.10;99.90
3360;DHT22;1693;49.602;11.046;2022-08-07T01:58:21;13.10;99.90
3360;DHT22;1693;49.602;11.046;2022-08-07T02:00:51;13.10;99.90
3360;DHT22;1693;49.602;11.046;2022-08-07T02:03:22;13.10;99.90
3360;DHT22;1693;49.602;11.046;2022-08-07T02:05:53;13.10;99.90
3360;DHT22;1693;49.602;11.046;2022-08-07T02:08:23;13.10;99.90
3360;DHT22;1693;49.602;11.046;2022-08-07T02:10:53;13.10;99.90
3360;DHT22;1693;49.602;11.046;2022-08-07T02:13:28;13.00;99.90
3360;DHT22;1693;49.602;11.046;2022-08-07T02:15:58;13.00;99.90
3360;DHT22;1693;49.602;11.046;2022-08-07T02:18:26;12.90;99.90
3360;DHT22;1693;49.602;11.046;2022-08-07T02:20:56;12.90;99.90
3360;DHT22;1693;49.602;11.046;2022-08-07T02:23:25;12.90;99.90
3360;DHT22;1693;49.602;11.046;2022-08-07T02:25:56;12.90;99.90
3360;DHT22;1693;49.602;11.046;2022-08-07T02:28:26;12.80;99.90
3360;DHT22;1693;49.602;11.046;2022-08-07T02:30:55;12.80;99.90
3360;DHT22;1693;49.602;11.046;2022-08-07T02:33:24;12.70;99.90
3360;DHT22;1693;49.602;11.046;2022-08-07T02:35:52;12.70;99.90
3360;DHT22;1693;49.602;11.046;2022-08-07T02:38:22;12.60;99.90
3360;DHT22;1693;49.602;11.046;2022-08-07T02:40:51;12.60;99.90
3360;DHT22;1693;49.602;11.046;2022-08-07T02:43:20;12.50;99.90
3360;DHT22;1693;49.602;11.046;2022-08-07T02:45:48;12.50;99.90
3360;DHT22;1693;49.602;11.046;2022-08-07T02:48:16;12.40;99.90
3360;DHT22;1693;49.602;11.046;2022-08-07T02:50:47;12.30;99.90
3360;DHT22;1693;49.602;11.046;2022-08-07T02:53:20;12.30;99.90
3360;DHT22;1693;49.602;11.046;2022-08-07T02:55:49;12.20;99.90
3360;DHT22;1693;49.602;11.046;2022-08-07T02:58:21;12.20;99.90
3360;DHT22;1693;49.602;11.046;2022-08-07T03:00:51;12.10;99.90
3360;DHT22;1693;49.602;11.046;2022-08-07T03:03:18;12.00;99.90
3360;DHT22;1693;49.602;11.046;2022-08-07T03:05:46;12.00;99.90
3360;DHT22;1693;49.602;11.046;2022-08-07T03:08:15;11.90;99.90
3360;DHT22;1693;49.602;11.046;2022-08-07T03:10:44;11.80;99.90
3360;DHT22;1693;49.602;11.046;2022-08-07T03:13:12;11.70;99.90
3360;DHT22;1693;49.602;11.046;2022-08-07T03:15:42;11.70;99.90
3360;DHT22;1693;49.602;11.046;2022-08-07T03:18:09;11.70;99.90
3360;DHT22;1693;49.602;11.046;2022-08-07T03:20:37;11.60;99.90
3360;DHT22;1693;49.602;11.046;2022-08-07T03:23:06;11.60;99.90
3360;DHT22;1693;49.602;11.046;2022-08-07T03:25:38;11.60;99.90
3360;DHT22;1693;49.602;11.046;2022-08-07T03:28:06;11.60;99.90
3360;DHT22;1693;49.602;11.046;2022-08-07T03:30:36;11.50;99.90
3360;DHT22;1693;49.602;11.046;2022-08-07T03:33:06;11.40;99.90
3360;DHT22;1693;49.602;11.046;2022-08-07T03:35:35;11.30;99.90
3360;DHT22;1693;49.602;11.046;2022-08-07T03:38:04;11.30;99.90
3360;DHT22;1693;49.602;11.046;2022-08-07T03:40:33;11.20;99.90
3360;DHT22;1693;49.602;11.046;2022-08-07T03:43:01;11.20;99.90
3360;DHT22;1693;49.602;11.046;2022-08-07T03:45:29;11.20;99.90
3360;DHT22;1693;49.602;11.046;2022-08-07T03:47:57;11.20;99.90
3360;DHT22;1693;49.602;11.046;2022-08-07T03:50:26;11.20;99.90
3360;DHT22;1693;49.602;11.046;2022-08-07T03:52:56;11.10;99.90
3360;DHT22;1693;49.602;11.046;2022-08-07T03:55:24;11.10;99.90
3360;DHT22;1693;49.602;11.046;2022-08-07T03:57:51;11.10;99.90
3360;DHT22;1693;49.602;11.046;2022-08-07T04:00:18;11.10;99.90
3360;DHT22;1693;49.602;11.046;2022-08-07T04:02:46;11.00;99.90
3360;DHT22;1693;49.602;11.046;2022-08-07T04:05:13;11.00;99.90
3360;DHT22;1693;49.602;11.046;2022-08-07T04:07:45;11.00;99.90
3360;DHT22;1693;49.602;11.046;2022-08-07T04:10:12;10.90;99.90
3360;DHT22;1693;49.602;11.046;2022-08-07T04:12:40;10.90;99.90
3360;DHT22;1693;49.602;11.046;2022-08-07T04:15:09;10.90;99.90
3360;DHT22;1693;49.602;11.046;2022-08-07T04:17:37;10.90;99.90
3360;DHT22;1693;49.602;11.046;2022-08-07T04:20:08;10.90;99.90
3360;DHT22;1693;49.602;11.046;2022-08-07T04:22:36;10.90;99.90
3360;DHT22;1693;49.602;11.046;2022-08-07T04:25:06;10.90;99.90
3360;DHT22;1693;49.602;11.046;2022-08-07T04:27:35;10.90;99.90
3360;DHT22;1693;49.602;11.046;2022-08-07T04:30:04;10.90;99.90
3360;DHT22;1693;49.602;11.046;2022-08-07T04:32:32;10.90;99.90
3360;DHT22;1693;49.602;11.046;2022-08-07T04:34:59;10.90;99.90
3360;DHT22;1693;49.602;11.046;2022-08-07T04:37:27;11.00;99.90
3360;DHT22;1693;49.602;11.046;2022-08-07T04:39:54;11.00;99.90
3360;DHT22;1693;49.602;11.046;2022-08-07T04:42:23;11.00;99.90
3360;DHT22;1693;49.602;11.046;2022-08-07T04:44:52;11.10;99.90
3360;DHT22;1693;49.602;11.046;2022-08-07T04:47:26;11.20;99.90
3360;DHT22;1693;49.602;11.046;2022-08-07T04:50:02;11.30;99.90
3360;DHT22;1693;49.602;11.046;2022-08-07T04:52:38;11.50;99.90
3360;DHT22;1693;49.602;11.046;2022-08-07T04:55:14;11.50;99.90
3360;DHT22;1693;49.602;11.046;2022-08-07T04:57:51;11.50;99.90
3360;DHT22;1693;49.602;11.046;2022-08-07T05:00:28;11.50;99.90
3360;DHT22;1693;49.602;11.046;2022-08-07T05:03:05;11.50;99.90
3360;DHT22;1693;49.602;11.046;2022-08-07T05:05:42;11.60;99.90
3360;DHT22;1693;49.602;11.046;2022-08-07T05:08:17;11.60;99.90
3360;DHT22;1693;49.602;11.046;2022-08-07T05:10:48;11.70;99.90
3360;DHT22;1693;49.602;11.046;2022-08-07T05:13:29;11.80;99.90
3360;DHT22;1693;49.602;11.046;2022-08-07T05:16:02;11.80;99.90
3360;DHT22;1693;49.602;11.046;2022-08-07T05:18:33;11.90;99.90
3360;DHT22;1693;49.602;11.046;2022-08-07T05:21:03;12.00;99.90
3360;DHT22;1693;49.602;11.046;2022-08-07T05:23:35;12.10;99.90
3360;DHT22;1693;49.602;11.046;2022-08-07T05:26:04;12.10;99.90
3360;DHT22;1693;49.602;11.046;2022-08-07T05:28:38;12.30;99.90
3360;DHT22;1693;49.602;11.046;2022-08-07T05:31:06;12.60;99.90
3360;DHT22;1693;49.602;11.046;2022-08-07T05:33:35;12.80;99.90
3360;DHT22;1693;49.602;11.046;2022-08-07T05:36:04;13.00;99.90
3360;DHT22;1693;49.602;11.046;2022-08-07T05:38:32;13.10;99.90
3360;DHT22;1693;49.602;11.046;2022-08-07T05:41:01;13.30;99.90
3360;DHT22;1693;49.602;11.046;2022-08-07T05:43:29;13.50;99.90
3360;DHT22;1693;49.602;11.046;2022-08-07T05:45:58;13.60;99.90
3360;DHT22;1693;49.602;11.046;2022-08-07T05:48:27;13.80;99.90
3360;DHT22;1693;49.602;11.046;2022-08-07T05:50:54;14.00;99.90
3360;DHT22;1693;49.602;11.046;2022-08-07T05:53:22;14.20;99.90
3360;DHT22;1693;49.602;11.046;2022-08-07T05:55:49;14.30;99.90
3360;DHT22;1693;49.602;11.046;2022-08-07T05:58:17;14.50;99.90
3360;DHT22;1693;49.602;11.046;2022-08-07T06:00:46;14.80;99.90
3360;DHT22;1693;49.602;11.046;2022-08-07T06:03:17;15.00;99.90
3360;DHT22;1693;49.602;11.046;2022-08-07T06:05:46;15.20;99.90
3360;DHT22;1693;49.602;11.046;2022-08-07T06:08:15;15.50;99.90
3360;DHT22;1693;49.602;11.046;2022-08-07T06:10:43;15.80;99.90
3360;DHT22;1693;49.602;11.046;2022-08-07T06:13:10;16.10;99.90
3360;DHT22;1693;49.602;11.046;2022-08-07T06:15:39;16.40;99.90
3360;DHT22;1693;49.602;11.046;2022-08-07T06:18:06;16.50;99.90
3360;DHT22;1693;49.602;11.046;2022-08-07T06:20:35;16.80;99.90
3360;DHT22;1693;49.602;11.046;2022-08-07T06:23:03;17.00;99.90
3360;DHT22;1693;49.602;11.046;2022-08-07T06:25:31;17.10;99.90
3360;DHT22;1693;49.602;11.046;2022-08-07T06:28:02;17.20;99.90
3360;DHT22;1693;49.602;11.046;2022-08-07T06:30:29;17.40;99.90
3360;DHT22;1693;49.602;11.046;2022-08-07T06:32:57;17.50;99.90
3360;DHT22;1693;49.602;11.046;2022-08-07T06:35:24;17.60;99.90
3360;DHT22;1693;49.602;11.046;2022-08-07T06:37:53;17.80;99.90
3360;DHT22;1693;49.602;11.046;2022-08-07T06:40:20;17.80;99.90
3360;DHT22;1693;49.602;11.046;2022-08-07T06:42:48;17.90;99.90
3360;DHT22;1693;49.602;11.046;2022-08-07T06:45:18;18.00;99.90
3360;DHT22;1693;49.602;11.046;2022-08-07T06:47:46;18.20;99.90
3360;DHT22;1693;49.602;11.046;2022-08-07T06:50:13;18.40;99.90
3360;DHT22;1693;49.602;11.046;2022-08-07T06:52:44;18.60;99.90
3360;DHT22;1693;49.602;11.046;2022-08-07T06:55:16;18.70;99.90
3360;DHT22;1693;49.602;11.046;2022-08-07T06:57:45;18.80;99.90
3360;DHT22;1693;49.602;11.046;2022-08-07T07:00:14;18.90;99.90
3360;DHT22;1693;49.602;11.046;2022-08-07T07:02:42;19.00;99.90
3360;DHT22;1693;49.602;11.046;2022-08-07T07:05:10;19.10;99.90
3360;DHT22;1693;49.602;11.046;2022-08-07T07:07:37;19.30;99.40
3360;DHT22;1693;49.602;11.046;2022-08-07T07:10:06;19.30;99.40
3360;DHT22;1693;49.602;11.046;2022-08-07T07:12:38;19.40;99.10
3360;DHT22;1693;49.602;11.046;2022-08-07T07:15:10;19.60;99.50
3360;DHT22;1693;49.602;11.046;2022-08-07T07:17:44;19.70;98.70
3360;DHT22;1693;49.602;11.046;2022-08-07T07:20:18;19.80;98.00
3360;DHT22;1693;49.602;11.046;2022-08-07T07:22:46;19.80;97.90
3360;DHT22;1693;49.602;11.046;2022-08-07T07:25:15;19.90;97.50
3360;DHT22;1693;49.602;11.046;2022-08-07T07:27:50;20.00;97.20
3360;DHT22;1693;49.602;11.046;2022-08-07T07:30:21;20.00;97.40
3360;DHT22;1693;49.602;11.046;2022-08-07T07:32:51;20.20;97.90
3360;DHT22;1693;49.602;11.046;2022-08-07T07:35:18;20.30;97.40
3360;DHT22;1693;49.602;11.046;2022-08-07T07:37:49;20.50;97.10
3360;DHT22;1693;49.602;11.046;2022-08-07T07:40:19;20.70;97.70
3360;DHT22;1693;49.602;11.046;2022-08-07T07:42:52;20.80;97.80
3360;DHT22;1693;49.602;11.046;2022-08-07T07:45:22;20.80;97.00
3360;DHT22;1693;49.602;11.046;2022-08-07T07:47:51;21.00;97.90
3360;DHT22;1693;49.602;11.046;2022-08-07T07:50:21;21.00;97.90
3360;DHT22;1693;49.602;11.046;2022-08-07T07:52:49;21.30;96.80
3360;DHT22;1693;49.602;11.046;2022-08-07T07:55:18;21.30;95.80
3360;DHT22;1693;49.602;11.046;2022-08-07T07:57:48;21.30;94.60
3360;DHT22;1693;49.602;11.046;2022-08-07T08:00:17;21.40;94.60
3360;DHT22;1693;49.602;11.046;2022-08-07T08:02:47;21.50;94.60
3360;DHT22;1693;49.602;11.046;2022-08-07T08:05:16;21.70;94.90
3360;DHT22;1693;49.602;11.046;2022-08-07T08:07:44;21.80;95.00
3360;DHT22;1693;49.602;11.046;2022-08-07T08:10:13;21.80;93.30
3360;DHT22;1693;49.602;11.046;2022-08-07T08:12:40;21.90;93.50
3360;DHT22;1693;49.602;11.046;2022-08-07T08:15:09;21.80;93.00
3360;DHT22;1693;49.602;11.046;2022-08-07T08:17:37;21.70;91.80
3360;DHT22;1693;49.602;11.046;2022-08-07T08:20:07;21.80;91.10
3360;DHT22;1693;49.602;11.046;2022-08-07T08:22:38;21.90;91.20
3360;DHT22;1693;49.602;11.046;2022-08-07T08:25:23;21.90;91.10
3360;DHT22;1693;49.602;11.046;2022-08-07T08:28:11;22.00;91.20
3360;DHT22;1693;49.602;11.046;2022-08-07T08:30:41;22.00;91.10
3360;DHT22;1693;49.602;11.046;2022-08-07T08:33:11;22.10;90.80
3360;DHT22;1693;49.602;11.046;2022-08-07T08:35:42;22.30;90.50
3360;DHT22;1693;49.602;11.046;2022-08-07T08:38:12;22.40;89.50
3360;DHT22;1693;49.602;11.046;2022-08-07T08:40:45;22.30;85.00
3360;DHT22;1693;49.602;11.046;2022-08-07T08:43:18;22.40;86.00
3360;DHT22;1693;49.602;11.046;2022-08-07T08:45:51;22.50;86.00
3360;DHT22;1693;49.602;11.046;2022-08-07T08:48:26;22.60;82.00
3360;DHT22;1693;49.602;11.046;2022-08-07T08:51:00;22.50;81.70
3360;DHT22;1693;49.602;11.046;2022-08-07T08:53:32;22.80;82.30
3360;DHT22;1693;49.602;11.046;2022-08-07T08:56:06;22.90;83.10
3360;DHT22;1693;49.602;11.046;2022-08-07T08:58:40;22.80;80.00
3360;DHT22;1693;49.602;11.046;2022-08-07T09:01:14;22.80;78.90
3360;DHT22;1693;49.602;11.046;2022-08-07T09:03:49;22.70;78.00
3360;DHT22;1693;49.602;11.046;2022-08-07T09:06:25;22.70;78.70
3360;DHT22;1693;49.602;11.046;2022-08-07T09:09:02;22.90;80.00
3360;DHT22;1693;49.602;11.046;2022-08-07T09:11:36;23.10;79.30
3360;DHT22;1693;49.602;11.046;2022-08-07T09:14:10;23.10;77.50
3360;DHT22;1693;49.602;11.046;2022-08-07T09:16:56;23.10;74.90
3360;DHT22;1693;49.602;11.046;2022-08-07T09:19:40;23.20;75.10
3360;DHT22;1693;49.602;11.046;2022-08-07T09:22:20;23.20;73.20
3360;DHT22;1693;49.602;11.046;2022-08-07T09:24:57;23.00;74.10
3360;DHT22;1693;49.602;11.046;2022-08-07T09:27:29;23.20;73.40
3360;DHT22;1693;49.602;11.046;2022-08-07T09:30:03;23.40;74.40
3360;DHT22;1693;49.602;11.046;2022-08-07T09:32:46;23.40;72.10
3360;DHT22;1693;49.602;11.046;2022-08-07T09:35:20;23.50;73.20
3360;DHT22;1693;49.602;11.046;2022-08-07T09:37:57;23.60;72.40
3360;DHT22;1693;49.602;11.046;2022-08-07T09:40:34;23.50;69.60
3360;DHT22;1693;49.602;11.046;2022-08-07T09:43:11;23.70;71.00
3360;DHT22;1693;49.602;11.046;2022-08-07T09:45:46;23.80;70.70
3360;DHT22;1693;49.602;11.046;2022-08-07T09:48:30;23.90;70.80
3360;DHT22;1693;49.602;11.046;2022-08-07T09:51:10;23.60;68.30
3360;DHT22;1693;49.602;11.046;2022-08-07T09:53:41;23.70;71.00
3360;DHT22;1693;49.602;11.046;2022-08-07T09:56:40;24.00;71.30
3360;DHT22;1693;49.602;11.046;2022-08-07T09:59:32;24.10;68.70
3360;DHT22;1693;49.602;11.046;2022-08-07T10:02:16;24.00;67.60
3360;DHT22;1693;49.602;11.046;2022-08-07T10:05:09;23.80;66.30
3360;DHT22;1693;49.602;11.046;2022-08-07T10:07:48;24.00;68.70
3360;DHT22;1693;49.602;11.046;2022-08-07T10:10:29;24.10;66.70
3360;DHT22;1693;49.602;11.046;2022-08-07T10:13:20;24.10;65.70
3360;DHT22;1693;49.602;11.046;2022-08-07T10:16:01;24.20;65.40
3360;DHT22;1693;49.602;11.046;2022-08-07T10:18:42;24.30;64.00
3360;DHT22;1693;49.602;11.046;2022-08-07T10:21:25;24.60;64.40
3360;DHT22;1693;49.602;11.046;2022-08-07T10:24:22;24.70;62.00
3360;DHT22;1693;49.602;11.046;2022-08-07T10:27:04;24.80;62.80
3360;DHT22;1693;49.602;11.046;2022-08-07T10:29:58;24.90;61.50
3360;DHT22;1693;49.602;11.046;2022-08-07T10:32:47;24.90;60.30
3360;DHT22;1693;49.602;11.046;2022-08-07T10:35:25;25.10;62.00
3360;DHT22;1693;49.602;11.046;2022-08-07T10:38:05;25.30;63.00
3360;DHT22;1693;49.602;11.046;2022-08-07T10:40:44;25.20;60.70
3360;DHT22;1693;49.602;11.046;2022-08-07T10:43:18;25.50;59.10
3360;DHT22;1693;49.602;11.046;2022-08-07T10:45:48;25.40;59.50
3360;DHT22;1693;49.602;11.046;2022-08-07T10:48:30;25.30;59.60
3360;DHT22;1693;49.602;11.046;2022-08-07T10:51:04;25.50;58.20
3360;DHT22;1693;49.602;11.046;2022-08-07T10:53:40;25.50;58.60
3360;DHT22;1693;49.602;11.046;2022-08-07T10:56:14;25.50;58.70
3360;DHT22;1693;49.602;11.046;2022-08-07T10:58:59;25.70;58.40
3360;DHT22;1693;49.602;11.046;2022-08-07T11:01:40;25.90;57.70
3360;DHT22;1693;49.602;11.046;2022-08-07T11:04:18;26.20;57.40
3360;DHT22;1693;49.602;11.046;2022-08-07T11:06:55;25.90;56.10
3360;DHT22;1693;49.602;11.046;2022-08-07T11:09:29;26.00;55.00
3360;DHT22;1693;49.602;11.046;2022-08-07T11:12:01;26.00;54.90
3360;DHT22;1693;49.602;11.046;2022-08-07T11:14:33;25.80;54.60
3360;DHT22;1693;49.602;11.046;2022-08-07T11:17:04;25.90;55.50
3360;DHT22;1693;49.602;11.046;2022-08-07T11:19:39;26.10;54.90
3360;DHT22;1693;49.602;11.046;2022-08-07T11:22:16;26.00;54.40
3360;DHT22;1693;49.602;11.046;2022-08-07T11:24:50;26.30;55.10
3360;DHT22;1693;49.602;11.046;2022-08-07T11:27:22;26.40;55.50
3360;DHT22;1693;49.602;11.046;2022-08-07T11:30:01;26.70;54.10
3360;DHT22;1693;49.602;11.046;2022-08-07T11:32:34;26.90;53.20
3360;DHT22;1693;49.602;11.046;2022-08-07T11:35:07;27.00;53.20
3360;DHT22;1693;49.602;11.046;2022-08-07T11:37:55;27.10;52.00
3360;DHT22;1693;49.602;11.046;2022-08-07T11:40:35;27.20;52.30
3360;DHT22;1693;49.602;11.046;2022-08-07T11:43:12;27.50;50.80
3360;DHT22;1693;49.602;11.046;2022-08-07T11:45:51;27.90;52.80
3360;DHT22;1693;49.602;11.046;2022-08-07T11:48:30;28.10;50.90
3360;DHT22;1693;49.602;11.046;2022-08-07T11:51:28;28.00;52.20
3360;DHT22;1693;49.602;11.046;2022-08-07T11:57:04;28.00;51.60
3360;DHT22;1693;49.602;11.046;2022-08-07T11:59:52;28.10;51.60
3360;DHT22;1693;49.602;11.046;2022-08-07T12:02:40;28.30;51.60
3360;DHT22;1693;49.602;11.046;2022-08-07T12:05:18;28.00;49.20
3360;DHT22;1693;49.602;11.046;2022-08-07T12:07:51;28.30;51.50
3360;DHT22;1693;49.602;11.046;2022-08-07T12:10:26;28.80;51.00
3360;DHT22;1693;49.602;11.046;2022-08-07T12:12:59;28.80;49.40
3360;DHT22;1693;49.602;11.046;2022-08-07T12:15:32;29.20;48.50
3360;DHT22;1693;49.602;11.046;2022-08-07T12:18:04;29.10;48.40
3360;DHT22;1693;49.602;11.046;2022-08-07T12:20:37;29.40;48.70
3360;DHT22;1693;49.602;11.046;2022-08-07T12:23:23;29.20;48.00
3360;DHT22;1693;49.602;11.046;2022-08-07T12:25:59;29.50;49.00
3360;DHT22;1693;49.602;11.046;2022-08-07T12:31:18;29.80;47.60
3360;DHT22;1693;49.602;11.046;2022-08-07T12:33:49;30.50;46.40
3360;DHT22;1693;49.602;11.046;2022-08-07T12:36:18;31.40;44.80
3360;DHT22;1693;49.602;11.046;2022-08-07T12:38:46;31.60;45.40
3360;DHT22;1693;49.602;11.046;2022-08-07T12:41:15;31.60;44.00
3360;DHT22;1693;49.602;11.046;2022-08-07T12:43:45;31.10;44.70
3360;DHT22;1693;49.602;11.046;2022-08-07T12:46:23;32.90;44.60
3360;DHT22;1693;49.602;11.046;2022-08-07T12:48:57;33.90;43.00
3360;DHT22;1693;49.602;11.046;2022-08-07T12:51:34;33.80;44.10
3360;DHT22;1693;49.602;11.046;2022-08-07T12:54:08;34.20;41.90
3360;DHT22;1693;49.602;11.046;2022-08-07T12:56:42;34.70;41.90
3360;DHT22;1693;49.602;11.046;2022-08-07T12:59:17;35.90;40.70
3360;DHT22;1693;49.602;11.046;2022-08-07T13:01:55;36.00;40.80
3360;DHT22;1693;49.602;11.046;2022-08-07T13:04:50;35.80;39.70
3360;DHT22;1693;49.602;11.046;2022-08-07T13:08:04;35.60;38.50
3360;DHT22;1693;49.602;11.046;2022-08-07T13:10:40;36.00;37.40
3360;DHT22;1693;49.602;11.046;2022-08-07T13:13:35;36.90;37.40
3360;DHT22;1693;49.602;11.046;2022-08-07T13:16:14;35.30;36.80
3360;DHT22;1693;49.602;11.046;2022-08-07T13:18:49;35.00;37.30
3360;DHT22;1693;49.602;11.046;2022-08-07T13:21:23;36.90;37.10
3360;DHT22;1693;49.602;11.046;2022-08-07T13:24:02;37.00;39.00
3360;DHT22;1693;49.602;11.046;2022-08-07T13:26:34;38.20;37.60
3360;DHT22;1693;49.602;11.046;2022-08-07T13:29:09;38.40;38.20
3360;DHT22;1693;49.602;11.046;2022-08-07T13:31:44;38.10;37.90
3360;DHT22;1693;49.602;11.046;2022-08-07T13:34:19;37.50;35.80
3360;DHT22;1693;49.602;11.046;2022-08-07T13:36:51;37.80;36.60
3360;DHT22;1693;49.602;11.046;2022-08-07T13:39:28;37.50;34.90
3360;DHT22;1693;49.602;11.046;2022-08-07T13:42:00;38.50;37.80
3360;DHT22;1693;49.602;11.046;2022-08-07T13:44:31;38.80;33.90
3360;DHT22;1693;49.602;11.046;2022-08-07T13:47:02;38.90;32.80
3360;DHT22;1693;49.602;11.046;2022-08-07T13:49:33;40.10;33.50
3360;DHT22;1693;49.602;11.046;2022-08-07T13:52:03;39.00;35.00
3360;DHT22;1693;49.602;11.046;2022-08-07T13:54:31;40.40;32.60
3360;DHT22;1693;49.602;11.046;2022-08-07T13:57:02;39.20;34.20
3360;DHT22;1693;49.602;11.046;2022-08-07T13:59:34;38.80;32.40
3360;DHT22;1693;49.602;11.046;2022-08-07T14:02:08;38.80;33.20
3360;DHT22;1693;49.602;11.046;2022-08-07T14:04:45;38.70;32.20
3360;DHT22;1693;49.602;11.046;2022-08-07T14:07:14;39.70;34.60
3360;DHT22;1693;49.602;11.046;2022-08-07T14:09:41;40.10;33.00
3360;DHT22;1693;49.602;11.046;2022-08-07T14:12:23;40.90;31.80
3360;DHT22;1693;49.602;11.046;2022-08-07T14:14:53;40.60;31.60
3360;DHT22;1693;49.602;11.046;2022-08-07T14:17:24;40.40;33.10
3360;DHT22;1693;49.602;11.046;2022-08-07T14:19:57;39.60;31.30
3360;DHT22;1693;49.602;11.046;2022-08-07T14:22:35;39.10;31.40
3360;DHT22;1693;49.602;11.046;2022-08-07T14:25:09;39.90;32.70
3360;DHT22;1693;49.602;11.046;2022-08-07T14:27:38;39.20;31.30
3360;DHT22;1693;49.602;11.046;2022-08-07T14:30:08;39.80;35.90
3360;DHT22;1693;49.602;11.046;2022-08-07T14:32:39;40.20;30.40
3360;DHT22;1693;49.602;11.046;2022-08-07T14:35:14;41.60;32.30
3360;DHT22;1693;49.602;11.046;2022-08-07T14:37:46;41.30;30.00
3360;DHT22;1693;49.602;11.046;2022-08-07T14:40:16;40.90;30.90
3360;DHT22;1693;49.602;11.046;2022-08-07T14:42:44;39.40;30.20
3360;DHT22;1693;49.602;11.046;2022-08-07T14:45:18;40.80;31.10
3360;DHT22;1693;49.602;11.046;2022-08-07T14:47:45;41.10;30.20
3360;DHT22;1693;49.602;11.046;2022-08-07T14:50:12;39.90;30.00
3360;DHT22;1693;49.602;11.046;2022-08-07T14:52:46;38.60;30.10
3360;DHT22;1693;49.602;11.046;2022-08-07T14:55:15;38.30;31.90
3360;DHT22;1693;49.602;11.046;2022-08-07T14:57:46;39.60;32.30
3360;DHT22;1693;49.602;11.046;2022-08-07T15:00:16;39.30;30.10
3360;DHT22;1693;49.602;11.046;2022-08-07T15:02:45;40.70;29.80
3360;DHT22;1693;49.602;11.046;2022-08-07T15:05:16;40.50;30.00
3360;DHT22;1693;49.602;11.046;2022-08-07T15:07:46;40.20;30.30
3360;DHT22;1693;49.602;11.046;2022-08-07T15:10:18;39.90;30.00
3360;DHT22;1693;49.602;11.046;2022-08-07T15:12:48;40.70;29.60
3360;DHT22;1693;49.602;11.046;2022-08-07T15:15:23;40.80;32.30
3360;DHT22;1693;49.602;11.046;2022-08-07T15:17:58;41.50;30.00
3360;DHT22;1693;49.602;11.046;2022-08-07T15:20:30;42.20;30.90
3360;DHT22;1693;49.602;11.046;2022-08-07T15:23:08;43.00;28.70
3360;DHT22;1693;49.602;11.046;2022-08-07T15:25:38;41.90;28.20
3360;DHT22;1693;49.602;11.046;2022-08-07T15:28:07;41.70;28.20
3360;DHT22;1693;49.602;11.046;2022-08-07T15:30:35;41.80;29.30
3360;DHT22;1693;49.602;11.046;2022-08-07T15:33:04;43.70;29.80
3360;DHT22;1693;49.602;11.046;2022-08-07T15:35:32;43.30;27.70
3360;DHT22;1693;49.602;11.046;2022-08-07T15:38:04;42.80;27.80
3360;DHT22;1693;49.602;11.046;2022-08-07T15:40:33;42.20;28.10
3360;DHT22;1693;49.602;11.046;2022-08-07T15:43:13;40.10;28.40
3360;DHT22;1693;49.602;11.046;2022-08-07T15:45:42;39.80;29.30
3360;DHT22;1693;49.602;11.046;2022-08-07T15:48:17;39.90;29.70
3360;DHT22;1693;49.602;11.046;2022-08-07T15:50:49;40.30;29.70
3360;DHT22;1693;49.602;11.046;2022-08-07T15:53:27;40.30;28.90
3360;DHT22;1693;49.602;11.046;2022-08-07T15:56:02;40.00;28.80
3360;DHT22;1693;49.602;11.046;2022-08-07T15:58:34;40.60;28.60
3360;DHT22;1693;49.602;11.046;2022-08-07T16:01:05;40.10;28.50
3360;DHT22;1693;49.602;11.046;2022-08-07T16:03:39;40.30;29.60
3360;DHT22;1693;49.602;11.046;2022-08-07T16:06:11;40.60;28.50
3360;DHT22;1693;49.602;11.046;2022-08-07T16:08:41;39.50;28.30
3360;DHT22;1693;49.602;11.046;2022-08-07T16:11:22;39.70;30.00
3360;DHT22;1693;49.602;11.046;2022-08-07T16:13:59;38.90;29.00
3360;DHT22;1693;49.602;11.046;2022-08-07T16:16:50;39.40;30.20
3360;DHT22;1693;49.602;11.046;2022-08-07T16:22:39;39.20;28.80
3360;DHT22;1693;49.602;11.046;2022-08-07T16:25:24;39.00;29.00
3360;DHT22;1693;49.602;11.046;2022-08-07T16:28:01;38.90;29.20
3360;DHT22;1693;49.602;11.046;2022-08-07T16:30:36;38.90;28.80